createdAt,value
2022-12-23T00:00:52.055Z,0
2022-12-23T00:01:52.169Z,0
2022-12-23T00:02:52.194Z,0
2022-12-23T00:03:52.220Z,0
2022-12-23T00:04:52.064Z,0
2022-12-23T00:05:52.061Z,0
2022-12-23T00:06:52.055Z,0
2022-12-23T00:07:52.057Z,0
2022-12-23T00:08:52.079Z,0
2022-12-23T00:09:52.138Z,0
2022-12-23T00:10:52.058Z,0
2022-12-23T00:11:52.059Z,0
2022-12-23T00:12:52.121Z,0
2022-12-23T00:13:52.078Z,0
2022-12-23T00:14:52.061Z,0
2022-12-23T00:15:52.064Z,0
2022-12-23T00:16:52.197Z,0
2022-12-23T00:17:52.090Z,0
2022-12-23T00:18:52.053Z,0
2022-12-23T00:19:52.068Z,0
2022-12-23T00:20:52.143Z,0
2022-12-23T00:21:52.333Z,0
2022-12-23T00:22:52.081Z,0
2022-12-23T00:23:52.088Z,0
2022-12-23T00:24:52.161Z,0
2022-12-23T00:25:52.076Z,0
2022-12-23T00:26:52.079Z,0
2022-12-23T00:27:52.147Z,0
2022-12-23T00:28:52.083Z,0
2022-12-23T00:29:52.134Z,0
2022-12-23T00:30:52.146Z,0
2022-12-23T00:31:52.163Z,0
2022-12-23T00:32:52.082Z,0.6
2022-12-23T00:33:52.222Z,0.6
2022-12-23T00:34:52.177Z,0.6
2022-12-23T00:35:52.234Z,0
2022-12-23T00:36:52.200Z,0
2022-12-23T00:37:52.157Z,0
2022-12-23T00:38:52.170Z,0
2022-12-23T00:39:55.022Z,0
2022-12-23T00:40:52.195Z,0
2022-12-23T00:41:52.171Z,0
2022-12-23T00:42:52.219Z,0
2022-12-23T00:43:52.159Z,0
2022-12-23T00:44:52.255Z,0
2022-12-23T00:45:52.234Z,0
2022-12-23T00:46:52.189Z,0
2022-12-23T00:47:52.153Z,0
2022-12-23T00:48:52.164Z,0
2022-12-23T00:49:52.155Z,0.5
2022-12-23T00:50:52.160Z,0.5
2022-12-23T00:51:52.155Z,0.5
2022-12-23T00:52:52.161Z,0
2022-12-23T00:53:52.153Z,0
2022-12-23T00:54:52.227Z,0
2022-12-23T00:55:52.212Z,0
2022-12-23T00:56:52.175Z,0
2022-12-23T00:57:52.187Z,0
2022-12-23T00:58:52.164Z,0
2022-12-23T00:59:52.210Z,0
2022-12-23T01:00:52.210Z,0
2022-12-23T01:01:52.294Z,0
2022-12-23T01:02:52.282Z,0
2022-12-23T01:03:52.170Z,0
2022-12-23T01:04:52.220Z,0
2022-12-23T01:05:52.158Z,0
2022-12-23T01:06:52.161Z,0
2022-12-23T01:07:52.161Z,0
2022-12-23T01:08:52.286Z,0
2022-12-23T01:09:52.190Z,0
2022-12-23T01:10:52.325Z,0
2022-12-23T01:11:52.180Z,0
2022-12-23T01:12:52.217Z,0
2022-12-23T01:13:52.193Z,0
2022-12-23T01:14:52.184Z,0
2022-12-23T01:15:52.199Z,0
2022-12-23T01:16:52.271Z,0
2022-12-23T01:17:52.212Z,0
2022-12-23T01:18:52.184Z,0
2022-12-23T01:19:52.264Z,0
2022-12-23T01:20:52.299Z,0
2022-12-23T01:21:52.220Z,0
2022-12-23T01:22:52.203Z,0
2022-12-23T01:23:52.205Z,0
2022-12-23T01:24:52.218Z,0
2022-12-23T01:25:52.195Z,0
2022-12-23T01:26:52.198Z,0
2022-12-23T01:27:52.200Z,0
2022-12-23T01:28:52.230Z,0
2022-12-23T01:29:52.211Z,0
2022-12-23T01:30:52.239Z,0
2022-12-23T01:31:52.260Z,0
2022-12-23T01:32:52.208Z,0
2022-12-23T01:33:52.301Z,0
2022-12-23T01:34:52.212Z,0
2022-12-23T01:35:52.299Z,0
2022-12-23T01:36:52.218Z,0
2022-12-23T01:37:52.220Z,0
2022-12-23T01:38:52.239Z,0
2022-12-23T01:39:52.312Z,0
2022-12-23T01:40:52.312Z,0
2022-12-23T01:41:52.304Z,0
2022-12-23T01:42:52.221Z,0
2022-12-23T01:43:52.289Z,0
2022-12-23T01:44:52.380Z,0
2022-12-23T01:45:52.284Z,0
2022-12-23T01:46:52.248Z,0
2022-12-23T01:47:52.617Z,0
2022-12-23T01:48:52.269Z,0
2022-12-23T01:49:52.245Z,0
2022-12-23T01:50:52.262Z,0
2022-12-23T01:51:52.238Z,0
2022-12-23T01:52:52.349Z,0
2022-12-23T01:53:52.448Z,0
2022-12-23T01:54:52.245Z,0
2022-12-23T01:55:52.233Z,0
2022-12-23T01:56:52.247Z,0
2022-12-23T01:57:52.251Z,0
2022-12-23T01:58:52.278Z,0
2022-12-23T01:59:52.466Z,0
2022-12-23T02:00:52.299Z,0
2022-12-23T02:01:52.329Z,0
2022-12-23T02:02:52.334Z,0
2022-12-23T02:03:52.249Z,0
2022-12-23T02:04:52.267Z,0
2022-12-23T02:05:52.262Z,0
2022-12-23T02:06:52.275Z,0
2022-12-23T02:07:52.262Z,0
2022-12-23T02:08:52.240Z,0
2022-12-23T02:09:52.265Z,0
2022-12-23T02:10:52.254Z,0
2022-12-23T02:11:52.245Z,0
2022-12-23T02:12:52.271Z,0
2022-12-23T02:13:52.245Z,0
2022-12-23T02:14:52.300Z,0
2022-12-23T02:15:52.276Z,0
2022-12-23T02:16:52.348Z,0
2022-12-23T02:17:52.287Z,0
2022-12-23T02:18:52.288Z,0
2022-12-23T02:19:52.322Z,0
2022-12-23T02:20:52.282Z,0
2022-12-23T02:21:52.321Z,0
2022-12-23T02:22:52.326Z,0
2022-12-23T02:23:52.326Z,0
2022-12-23T02:24:52.327Z,0
2022-12-23T02:25:52.322Z,0
2022-12-23T02:26:52.360Z,0
2022-12-23T02:27:52.330Z,0
2022-12-23T02:28:52.335Z,0
2022-12-23T02:29:52.373Z,0
2022-12-23T02:30:52.331Z,0
2022-12-23T02:31:52.333Z,0
2022-12-23T02:32:52.368Z,0
2022-12-23T02:33:52.328Z,0
2022-12-23T02:34:52.396Z,0
2022-12-23T02:35:52.327Z,0
2022-12-23T02:36:52.415Z,0
2022-12-23T02:37:52.334Z,0
2022-12-23T02:38:52.423Z,0
2022-12-23T02:39:52.397Z,0
2022-12-23T02:40:52.327Z,0
2022-12-23T02:41:52.321Z,0
2022-12-23T02:42:52.373Z,0
2022-12-23T02:43:52.325Z,0
2022-12-23T02:44:52.438Z,0
2022-12-23T02:45:52.372Z,0
2022-12-23T02:46:52.328Z,0
2022-12-23T02:47:52.407Z,0
2022-12-23T02:48:52.364Z,0
2022-12-23T02:49:52.426Z,0
2022-12-23T02:50:52.487Z,0.5
2022-12-23T02:51:52.359Z,0.5
2022-12-23T02:52:52.378Z,0.5
2022-12-23T02:53:52.365Z,0
2022-12-23T02:54:52.462Z,0
2022-12-23T02:55:52.370Z,0
2022-12-23T02:56:52.366Z,0
2022-12-23T02:57:52.374Z,0
2022-12-23T02:58:52.427Z,0
2022-12-23T02:59:52.434Z,0
2022-12-23T03:00:52.419Z,0
2022-12-23T03:01:52.539Z,0
2022-12-23T03:02:52.569Z,0
2022-12-23T03:03:52.459Z,0
2022-12-23T03:04:52.402Z,0.6
2022-12-23T03:05:52.381Z,0.6
2022-12-23T03:06:52.385Z,0.6
2022-12-23T03:07:52.439Z,0.6
2022-12-23T03:08:52.398Z,0.6
2022-12-23T03:09:52.454Z,0.6
2022-12-23T03:10:52.458Z,0
2022-12-23T03:11:52.449Z,0
2022-12-23T03:12:52.478Z,0
2022-12-23T03:13:52.530Z,0
2022-12-23T03:14:52.486Z,0.7
2022-12-23T03:15:52.456Z,0.7
2022-12-23T03:16:52.551Z,0.7
2022-12-23T03:17:52.406Z,0.9
2022-12-23T03:18:52.409Z,0.9
2022-12-23T03:19:52.457Z,0.9
2022-12-23T03:20:52.553Z,0.9
2022-12-23T03:21:52.453Z,0.5
2022-12-23T03:22:52.458Z,0.5
2022-12-23T03:23:55.627Z,0.5
2022-12-23T03:24:52.501Z,0
2022-12-23T03:25:52.457Z,0
2022-12-23T03:26:52.479Z,0
2022-12-23T03:27:52.565Z,0
2022-12-23T03:28:52.535Z,0
2022-12-23T03:29:52.651Z,0
2022-12-23T03:30:52.635Z,0
2022-12-23T03:31:52.555Z,0
2022-12-23T03:32:52.586Z,0
2022-12-23T03:33:52.563Z,0
2022-12-23T03:34:52.610Z,0
2022-12-23T03:35:52.660Z,0
2022-12-23T03:36:52.625Z,0
2022-12-23T03:37:52.631Z,0.8
2022-12-23T03:38:52.599Z,0.8
2022-12-23T03:39:52.613Z,0.8
2022-12-23T03:40:52.639Z,0.8
2022-12-23T03:41:52.662Z,0.5
2022-12-23T03:42:52.603Z,0.5
2022-12-23T03:43:52.617Z,0.5
2022-12-23T03:45:19.553Z,0.5
2022-12-23T03:45:52.636Z,0
2022-12-23T03:46:52.828Z,0
2022-12-23T03:47:52.563Z,0
2022-12-23T03:48:52.578Z,0.7
2022-12-23T03:49:52.638Z,0.7
2022-12-23T03:50:52.560Z,0.7
2022-12-23T03:51:52.567Z,0.7
2022-12-23T03:52:52.586Z,0.7
2022-12-23T03:53:52.548Z,0.7
2022-12-23T03:54:52.611Z,0.7
2022-12-23T03:55:52.553Z,0.7
2022-12-23T03:56:52.610Z,0.8
2022-12-23T03:57:52.611Z,0.8
2022-12-23T03:58:52.559Z,0.8
2022-12-23T03:59:52.604Z,1.3
2022-12-23T04:00:52.614Z,1.3
2022-12-23T04:01:52.718Z,1.3
2022-12-23T04:02:52.768Z,1.3
2022-12-23T04:03:52.643Z,1
2022-12-23T04:04:52.625Z,1
2022-12-23T04:05:52.826Z,1
2022-12-23T04:06:52.626Z,0.8
2022-12-23T04:07:52.625Z,0.8
2022-12-23T04:08:52.660Z,0.8
2022-12-23T04:09:52.769Z,1
2022-12-23T04:10:52.683Z,1
2022-12-23T04:11:52.700Z,1
2022-12-23T04:12:52.693Z,1
2022-12-23T04:13:52.678Z,1.1
2022-12-23T04:14:52.697Z,1.1
2022-12-23T04:15:52.699Z,1.1
2022-12-23T04:16:52.756Z,1.1
2022-12-23T04:17:52.725Z,0.5
2022-12-23T04:18:52.731Z,0.5
2022-12-23T04:19:52.775Z,0.5
2022-12-23T04:20:52.703Z,0
2022-12-23T04:21:52.839Z,0
2022-12-23T04:22:52.710Z,0
2022-12-23T04:23:52.719Z,0.5
2022-12-23T04:24:52.795Z,0.5
2022-12-23T04:25:52.724Z,0.5
2022-12-23T04:26:52.721Z,0.5
2022-12-23T04:27:52.767Z,0.6
2022-12-23T04:28:52.719Z,0.6
2022-12-23T04:29:52.786Z,0.6
2022-12-23T04:30:52.773Z,0.9
2022-12-23T04:31:52.856Z,0.9
2022-12-23T04:32:52.726Z,0.9
2022-12-23T04:33:52.734Z,0.9
2022-12-23T04:34:52.729Z,1.4
2022-12-23T04:35:52.728Z,1.4
2022-12-23T04:36:52.725Z,1.4
2022-12-23T04:37:52.783Z,1.2
2022-12-23T04:38:52.723Z,1.2
2022-12-23T04:39:52.776Z,1.2
2022-12-23T04:40:52.776Z,1.3
2022-12-23T04:41:52.843Z,1.3
2022-12-23T04:42:52.737Z,1.3
2022-12-23T04:43:53.421Z,1.3
2022-12-23T04:44:52.894Z,0
2022-12-23T04:45:52.744Z,0
2022-12-23T04:46:52.828Z,0
2022-12-23T04:47:52.823Z,0.8
2022-12-23T04:48:52.752Z,0.8
2022-12-23T04:49:52.748Z,0.8
2022-12-23T04:50:52.740Z,0.8
2022-12-23T04:51:52.748Z,1
2022-12-23T04:52:52.751Z,1
2022-12-23T04:53:52.749Z,1
2022-12-23T04:54:52.805Z,2.2
2022-12-23T04:55:52.868Z,2.2
2022-12-23T04:56:52.836Z,2.2
2022-12-23T04:57:52.795Z,0.7
2022-12-23T04:58:52.784Z,0.7
2022-12-23T04:59:52.899Z,0.7
2022-12-23T05:00:52.840Z,0.7
2022-12-23T05:01:52.986Z,0.8
2022-12-23T05:02:52.956Z,0.8
2022-12-23T05:03:52.801Z,0.8
2022-12-23T05:04:52.856Z,1
2022-12-23T05:05:52.807Z,1
2022-12-23T05:06:52.814Z,1
2022-12-23T05:07:52.819Z,1
2022-12-23T05:08:52.804Z,1.3
2022-12-23T05:09:52.802Z,1.3
2022-12-23T05:10:52.804Z,1.3
2022-12-23T05:11:52.804Z,0.9
2022-12-23T05:12:52.859Z,0.9
2022-12-23T05:13:52.806Z,0.9
2022-12-23T05:14:52.891Z,0.9
2022-12-23T05:15:52.868Z,1.6
2022-12-23T05:16:52.856Z,1.6
2022-12-23T05:17:52.819Z,1.6
2022-12-23T05:18:52.903Z,1.2
2022-12-23T05:19:53.017Z,1.2
2022-12-23T05:20:52.866Z,1.2
2022-12-23T05:21:52.881Z,1.2
2022-12-23T05:22:52.872Z,0
2022-12-23T05:23:52.866Z,0
2022-12-23T05:24:52.855Z,0
2022-12-23T05:25:53.004Z,2.4
2022-12-23T05:26:59.626Z,2.4
2022-12-23T05:27:53.072Z,2.4
2022-12-23T05:28:53.041Z,2.4
2022-12-23T05:29:53.048Z,2.4
2022-12-23T05:30:52.954Z,1.2
2022-12-23T05:31:53.006Z,1.2
2022-12-23T05:32:52.963Z,1.2
2022-12-23T05:33:53.027Z,1.2
2022-12-23T05:34:53.029Z,1.2
2022-12-23T05:35:52.963Z,1.2
2022-12-23T05:36:52.922Z,1.2
2022-12-23T05:37:53.064Z,1.2
2022-12-23T05:38:52.953Z,1.2
2022-12-23T05:39:52.991Z,1.2
2022-12-23T05:40:53.016Z,1.2
2022-12-23T05:41:52.939Z,0.7
2022-12-23T05:42:52.929Z,0.7
2022-12-23T05:43:52.931Z,0.7
2022-12-23T05:44:52.996Z,0.7
2022-12-23T05:45:53.011Z,0.7
2022-12-23T05:46:52.920Z,0.7
2022-12-23T05:47:52.930Z,0.7
2022-12-23T05:48:52.970Z,0.5
2022-12-23T05:49:52.964Z,0.5
2022-12-23T05:50:52.928Z,0.5
2022-12-23T05:51:52.943Z,0.5
2022-12-23T05:52:52.923Z,0.5
2022-12-23T05:53:52.933Z,0.5
2022-12-23T05:54:52.961Z,0.5
2022-12-23T05:55:52.937Z,0
2022-12-23T05:56:52.994Z,0
2022-12-23T05:57:52.942Z,0
2022-12-23T05:58:53.045Z,0.7
2022-12-23T05:59:53.088Z,0.7
2022-12-23T06:00:52.997Z,0.7
2022-12-23T06:01:53.075Z,0.7
2022-12-23T06:02:54.049Z,0.8
2022-12-23T06:03:53.029Z,0.8
2022-12-23T06:04:53.005Z,0.8
2022-12-23T06:05:52.959Z,0
2022-12-23T06:06:52.959Z,0
2022-12-23T06:07:52.957Z,0
2022-12-23T06:08:57.587Z,0.6
2022-12-23T06:09:52.951Z,0.6
2022-12-23T06:10:52.962Z,0.6
2022-12-23T06:11:52.987Z,0.6
2022-12-23T06:12:52.960Z,0.7
2022-12-23T06:13:52.962Z,0.7
2022-12-23T06:14:52.976Z,0.7
2022-12-23T06:15:52.963Z,0
2022-12-23T06:16:53.060Z,0
2022-12-23T06:17:52.976Z,0
2022-12-23T06:18:52.964Z,0
2022-12-23T06:19:52.958Z,0.5
2022-12-23T06:20:53.010Z,0.5
2022-12-23T06:21:53.013Z,0.5
2022-12-23T06:22:52.964Z,0.6
2022-12-23T06:23:52.962Z,0.6
2022-12-23T06:24:52.979Z,0.6
2022-12-23T06:25:53.095Z,0
2022-12-23T06:26:56.942Z,0
2022-12-23T06:27:52.998Z,0
2022-12-23T06:28:52.990Z,0
2022-12-23T06:29:53.041Z,0
2022-12-23T06:30:53.011Z,0
2022-12-23T06:31:53.062Z,0
2022-12-23T06:32:53.024Z,0.7
2022-12-23T06:33:52.985Z,0.7
2022-12-23T06:34:53.052Z,0.7
2022-12-23T06:35:52.994Z,0.7
2022-12-23T06:36:52.986Z,0
2022-12-23T06:37:53.000Z,0
2022-12-23T06:38:53.006Z,0
2022-12-23T06:39:53.148Z,0
2022-12-23T06:40:52.999Z,0
2022-12-23T06:41:52.993Z,0
2022-12-23T06:42:52.997Z,0.6
2022-12-23T06:43:54.510Z,0.6
2022-12-23T06:44:53.229Z,0.6
2022-12-23T06:45:53.092Z,0.6
2022-12-23T06:46:53.176Z,0
2022-12-23T06:47:53.082Z,0
2022-12-23T06:48:53.055Z,0
2022-12-23T06:49:53.079Z,0
2022-12-23T06:50:53.025Z,0
2022-12-23T06:51:53.162Z,0
2022-12-23T06:52:53.072Z,1
2022-12-23T06:53:53.099Z,1
2022-12-23T06:54:53.099Z,1
2022-12-23T06:55:53.151Z,1
2022-12-23T06:56:53.078Z,1.2
2022-12-23T06:57:53.087Z,1.2
2022-12-23T06:58:53.050Z,1.2
2022-12-23T06:59:53.096Z,1.2
2022-12-23T07:00:53.085Z,0.5
2022-12-23T07:01:53.187Z,0.5
2022-12-23T07:02:53.289Z,0.5
2022-12-23T07:03:53.053Z,0.8
2022-12-23T07:04:53.077Z,0.8
2022-12-23T07:05:53.053Z,0.8
2022-12-23T07:06:53.061Z,0
2022-12-23T07:07:53.052Z,0
2022-12-23T07:08:53.112Z,0
2022-12-23T07:09:53.122Z,0
2022-12-23T07:10:53.099Z,0.7
2022-12-23T07:11:53.113Z,0.7
2022-12-23T07:12:53.065Z,0.7
2022-12-23T07:13:53.067Z,0.7
2022-12-23T07:14:53.123Z,0.7
2022-12-23T07:15:53.177Z,0.7
2022-12-23T07:16:53.168Z,1
2022-12-23T07:17:53.115Z,1
2022-12-23T07:18:53.106Z,1
2022-12-23T07:19:53.153Z,1
2022-12-23T07:20:53.103Z,0.7
2022-12-23T07:21:53.147Z,0.7
2022-12-23T07:22:53.150Z,0.7
2022-12-23T07:23:53.175Z,0
2022-12-23T07:24:53.174Z,0
2022-12-23T07:25:53.134Z,0
2022-12-23T07:26:53.104Z,0
2022-12-23T07:27:53.232Z,0
2022-12-23T07:28:53.113Z,0
2022-12-23T07:29:53.149Z,0
2022-12-23T07:30:53.101Z,0
2022-12-23T07:31:53.218Z,0
2022-12-23T07:32:53.102Z,0
2022-12-23T07:33:53.161Z,0
2022-12-23T07:34:53.271Z,0
2022-12-23T07:35:53.100Z,0
2022-12-23T07:36:53.252Z,0
2022-12-23T07:37:53.093Z,0.8
2022-12-23T07:38:53.097Z,0.8
2022-12-23T07:39:53.396Z,0.8
2022-12-23T07:40:53.302Z,0
2022-12-23T07:42:09.283Z,0
2022-12-23T07:42:53.264Z,0
2022-12-23T07:43:53.263Z,0
2022-12-23T07:44:53.269Z,0
2022-12-23T07:45:59.403Z,0
2022-12-23T07:46:53.259Z,0
2022-12-23T07:47:53.248Z,1.2
2022-12-23T07:48:53.253Z,1.2
2022-12-23T07:49:53.259Z,1.2
2022-12-23T07:50:53.241Z,1.2
2022-12-23T07:51:53.324Z,0
2022-12-23T07:52:53.313Z,0
2022-12-23T07:53:53.277Z,0
2022-12-23T07:54:53.276Z,0
2022-12-23T07:55:56.531Z,0
2022-12-23T07:56:53.192Z,0
2022-12-23T07:57:53.212Z,0
2022-12-23T07:58:53.291Z,0
2022-12-23T07:59:53.272Z,0
2022-12-23T08:00:53.301Z,0
2022-12-23T08:01:53.392Z,0
2022-12-23T08:02:53.290Z,0
2022-12-23T08:03:53.315Z,0
2022-12-23T08:04:53.264Z,0
2022-12-23T08:05:53.223Z,0
2022-12-23T08:06:53.220Z,0
2022-12-23T08:07:53.239Z,0
2022-12-23T08:08:53.255Z,0
2022-12-23T08:09:53.278Z,0
2022-12-23T08:10:53.218Z,0
2022-12-23T08:11:53.231Z,0
2022-12-23T08:12:53.219Z,0
2022-12-23T08:13:53.228Z,0
2022-12-23T08:14:53.220Z,0
2022-12-23T08:15:53.221Z,0
2022-12-23T08:16:53.333Z,0
2022-12-23T08:17:53.231Z,0
2022-12-23T08:18:53.228Z,0
2022-12-23T08:19:53.243Z,0.5
2022-12-23T08:20:53.236Z,0.5
2022-12-23T08:21:53.232Z,0.5
2022-12-23T08:22:53.225Z,0.8
2022-12-23T08:23:53.236Z,0.8
2022-12-23T08:24:53.280Z,0.8
2022-12-23T08:25:53.229Z,0.5
2022-12-23T08:26:53.228Z,0.5
2022-12-23T08:27:53.223Z,0.5
2022-12-23T08:28:53.383Z,0.5
2022-12-23T08:29:53.263Z,0.5
2022-12-23T08:30:53.283Z,0.5
2022-12-23T08:31:53.251Z,0.5
2022-12-23T08:32:53.235Z,0.5
2022-12-23T08:33:53.246Z,0.5
2022-12-23T08:34:53.246Z,0
2022-12-23T08:35:53.455Z,0
2022-12-23T08:36:53.237Z,0
2022-12-23T08:37:53.287Z,0
2022-12-23T08:38:53.316Z,0
2022-12-23T08:39:53.336Z,0
2022-12-23T08:40:53.308Z,0
2022-12-23T08:41:53.284Z,0
2022-12-23T08:42:53.277Z,0
2022-12-23T08:43:53.268Z,0
2022-12-23T08:44:53.331Z,0.8
2022-12-23T08:45:53.418Z,0.8
2022-12-23T08:46:53.269Z,0.8
2022-12-23T08:47:53.273Z,0.8
2022-12-23T08:48:53.269Z,0
2022-12-23T08:49:53.345Z,0
2022-12-23T08:50:53.317Z,0
2022-12-23T08:51:53.329Z,0
2022-12-23T08:52:53.334Z,0.5
2022-12-23T08:53:58.042Z,0.5
2022-12-23T08:54:53.325Z,0.5
2022-12-23T08:55:53.330Z,1.4
2022-12-23T08:56:53.318Z,1.4
2022-12-23T08:57:53.326Z,1.4
2022-12-23T08:58:53.324Z,1.4
2022-12-23T08:59:53.329Z,0
2022-12-23T09:00:53.374Z,0
2022-12-23T09:01:53.509Z,0
2022-12-23T09:02:53.421Z,0
2022-12-23T09:03:53.366Z,0
2022-12-23T09:04:53.338Z,2.7
2022-12-23T09:05:53.326Z,2.7
2022-12-23T09:06:53.313Z,2.7
2022-12-23T09:07:53.319Z,2.1
2022-12-23T09:08:53.346Z,2.1
2022-12-23T09:09:53.385Z,2.1
2022-12-23T09:10:53.334Z,2.1
2022-12-23T09:11:53.332Z,0
2022-12-23T09:12:53.462Z,0
2022-12-23T09:13:53.364Z,0
2022-12-23T09:14:53.369Z,0
2022-12-23T09:15:53.339Z,0.9
2022-12-23T09:16:53.388Z,0.9
2022-12-23T09:17:53.327Z,0.9
2022-12-23T09:18:53.338Z,0.9
2022-12-23T09:19:53.529Z,1.5
2022-12-23T09:20:53.367Z,1.5
2022-12-23T09:21:53.336Z,1.5
2022-12-23T09:22:53.332Z,1.5
2022-12-23T09:23:53.460Z,2.4
2022-12-23T09:24:53.500Z,2.4
2022-12-23T09:25:53.332Z,2.4
2022-12-23T09:26:53.436Z,1.2
2022-12-23T09:27:53.344Z,1.2
2022-12-23T09:28:53.388Z,1.2
2022-12-23T09:29:53.341Z,1.2
2022-12-23T09:30:53.422Z,1.4
2022-12-23T09:31:53.416Z,1.4
2022-12-23T09:32:53.360Z,1.4
2022-12-23T09:33:53.382Z,1.4
2022-12-23T09:34:53.352Z,0.7
2022-12-23T09:35:53.365Z,0.7
2022-12-23T09:36:55.383Z,0.7
2022-12-23T09:37:53.383Z,0.5
2022-12-23T09:38:53.378Z,0.5
2022-12-23T09:39:53.377Z,0.5
2022-12-23T09:40:53.377Z,1.1
2022-12-23T09:41:53.374Z,1.1
2022-12-23T09:42:53.347Z,1.1
2022-12-23T09:43:53.456Z,1.1
2022-12-23T09:44:53.443Z,1.1
2022-12-23T09:45:53.358Z,0.8
2022-12-23T09:46:53.459Z,0.8
2022-12-23T09:47:53.566Z,0.8
2022-12-23T09:48:53.463Z,0.8
2022-12-23T09:49:53.562Z,2.4
2022-12-23T09:50:53.468Z,2.4
2022-12-23T09:51:53.483Z,2.4
2022-12-23T09:52:53.474Z,2.4
2022-12-23T09:53:53.718Z,0.8
2022-12-23T09:54:53.496Z,0.8
2022-12-23T09:55:53.530Z,0.8
2022-12-23T09:56:53.542Z,0.8
2022-12-23T09:57:53.683Z,0.8
2022-12-23T09:58:53.532Z,2.9
2022-12-23T09:59:53.563Z,2.9
2022-12-23T10:00:53.561Z,2.9
2022-12-23T10:01:53.716Z,2.9
2022-12-23T10:02:53.716Z,1.2
2022-12-23T10:03:53.826Z,1.2
2022-12-23T10:04:53.583Z,1.2
2022-12-23T10:05:53.608Z,1.2
2022-12-23T10:06:56.285Z,2.2
2022-12-23T10:07:53.557Z,2.2
2022-12-23T10:08:53.570Z,2.2
2022-12-23T10:09:53.591Z,2.4
2022-12-23T10:10:53.557Z,2.4
2022-12-23T10:11:53.559Z,2.4
2022-12-23T10:12:53.657Z,2.4
2022-12-23T10:13:53.564Z,3
2022-12-23T10:14:53.598Z,3
2022-12-23T10:15:53.650Z,3
2022-12-23T10:16:53.592Z,2.4
2022-12-23T10:17:53.759Z,2.4
2022-12-23T10:18:53.587Z,2.4
2022-12-23T10:19:53.642Z,2.4
2022-12-23T10:20:53.596Z,0.8
2022-12-23T10:21:53.639Z,0.8
2022-12-23T10:22:53.592Z,0.8
2022-12-23T10:23:53.568Z,0.8
2022-12-23T10:24:53.617Z,2
2022-12-23T10:25:53.596Z,2
2022-12-23T10:26:53.571Z,2
2022-12-23T10:27:53.559Z,2
2022-12-23T10:28:53.613Z,2.5
2022-12-23T10:29:53.630Z,2.5
2022-12-23T10:31:17.090Z,2.5
2022-12-23T10:31:53.628Z,2.5
2022-12-23T10:32:53.717Z,2.5
2022-12-23T10:33:53.602Z,2.5
2022-12-23T10:34:53.607Z,0
2022-12-23T10:35:53.643Z,0
2022-12-23T10:36:53.619Z,0
2022-12-23T10:37:53.563Z,0
2022-12-23T10:38:53.569Z,0
2022-12-23T10:39:53.769Z,0
2022-12-23T10:40:53.605Z,0
2022-12-23T10:41:53.610Z,0
2022-12-23T10:42:53.644Z,0
2022-12-23T10:43:53.640Z,0.5
2022-12-23T10:44:53.632Z,0.5
2022-12-23T10:45:53.654Z,0.5
2022-12-23T10:46:53.652Z,0.7
2022-12-23T10:47:53.622Z,0.7
2022-12-23T10:48:53.633Z,0.7
2022-12-23T10:49:53.658Z,0.7
2022-12-23T10:50:53.604Z,0.7
2022-12-23T10:51:53.624Z,0.7
2022-12-23T10:52:53.618Z,0.7
2022-12-23T10:53:53.642Z,0
2022-12-23T10:54:53.647Z,0
2022-12-23T10:55:53.659Z,0
2022-12-23T10:56:53.640Z,0
2022-12-23T10:57:53.791Z,0
2022-12-23T10:58:53.764Z,0
2022-12-23T10:59:53.804Z,0
2022-12-23T11:00:53.823Z,0
2022-12-23T11:01:54.040Z,0
2022-12-23T11:02:53.793Z,0
2022-12-23T11:03:53.900Z,0.8
2022-12-23T11:04:53.839Z,0.8
2022-12-23T11:05:53.718Z,0.8
2022-12-23T11:07:11.032Z,0
2022-12-23T11:07:53.689Z,0
2022-12-23T11:08:53.739Z,0
2022-12-23T11:09:53.808Z,0
2022-12-23T11:10:53.706Z,0
2022-12-23T11:11:53.707Z,0
2022-12-23T11:12:53.764Z,0
2022-12-23T11:13:53.704Z,0
2022-12-23T11:14:53.724Z,0
2022-12-23T11:15:53.761Z,0
2022-12-23T11:16:53.780Z,1.1
2022-12-23T11:17:53.695Z,1.1
2022-12-23T11:18:53.695Z,1.1
2022-12-23T11:19:53.739Z,1.1
2022-12-23T11:20:53.728Z,0
2022-12-23T11:21:53.746Z,0
2022-12-23T11:22:53.754Z,0
2022-12-23T11:23:53.709Z,0
2022-12-23T11:24:53.763Z,0
2022-12-23T11:25:53.730Z,0
2022-12-23T11:26:53.710Z,0
2022-12-23T11:27:53.762Z,0
2022-12-23T11:28:53.712Z,0
2022-12-23T11:29:53.759Z,0
2022-12-23T11:30:56.427Z,0
2022-12-23T11:31:53.894Z,0
2022-12-23T11:32:53.738Z,0
2022-12-23T11:33:53.725Z,0
2022-12-23T11:34:53.797Z,0.5
2022-12-23T11:35:53.737Z,0.5
2022-12-23T11:36:55.808Z,0.5
2022-12-23T11:37:53.730Z,0.5
2022-12-23T11:38:53.725Z,0.5
2022-12-23T11:39:53.788Z,0.5
2022-12-23T11:40:53.741Z,0
2022-12-23T11:41:53.756Z,0
2022-12-23T11:42:55.399Z,0
2022-12-23T11:43:53.783Z,0
2022-12-23T11:44:53.782Z,0
2022-12-23T11:45:53.932Z,0
2022-12-23T11:46:53.870Z,0
2022-12-23T11:47:53.785Z,0
2022-12-23T11:48:54.953Z,0
2022-12-23T11:49:53.893Z,0
2022-12-23T11:50:53.783Z,0
2022-12-23T11:51:53.778Z,0
2022-12-23T11:52:53.817Z,0
2022-12-23T11:53:53.788Z,0
2022-12-23T11:54:54.631Z,0
2022-12-23T11:55:53.887Z,0
2022-12-23T11:56:53.828Z,0
2022-12-23T11:57:53.895Z,0
2022-12-23T11:58:53.979Z,0
2022-12-23T11:59:53.950Z,0
2022-12-23T12:00:55.954Z,0
2022-12-23T12:01:53.912Z,0
2022-12-23T12:02:54.001Z,0.7
2022-12-23T12:03:54.084Z,0.7
2022-12-23T12:04:53.935Z,0.7
2022-12-23T12:05:53.927Z,0.6
2022-12-23T12:06:56.516Z,0.6
2022-12-23T12:07:53.959Z,0.6
2022-12-23T12:08:53.893Z,0.6
2022-12-23T12:09:53.961Z,0.6
2022-12-23T12:10:53.883Z,0.6
2022-12-23T12:11:53.883Z,0.6
2022-12-23T12:12:55.020Z,0
2022-12-23T12:13:53.956Z,0
2022-12-23T12:14:53.890Z,0
2022-12-23T12:15:53.882Z,0.9
2022-12-23T12:16:53.965Z,0.9
2022-12-23T12:17:54.010Z,0.9
2022-12-23T12:18:55.809Z,0.9
2022-12-23T12:19:54.082Z,2.2
2022-12-23T12:20:53.897Z,2.2
2022-12-23T12:21:54.089Z,2.2
2022-12-23T12:22:53.962Z,0.8
2022-12-23T12:24:08.588Z,0.8
2022-12-23T12:24:54.004Z,0.8
2022-12-23T12:25:53.943Z,0.8
2022-12-23T12:26:53.950Z,0.5
2022-12-23T12:27:54.184Z,0.5
2022-12-23T12:28:54.056Z,0.5
2022-12-23T12:29:54.108Z,0.5
2022-12-23T12:30:54.058Z,0
2022-12-23T12:31:53.993Z,0
2022-12-23T12:32:54.022Z,0
2022-12-23T12:33:54.097Z,0
2022-12-23T12:34:54.211Z,0
2022-12-23T12:35:55.938Z,0
2022-12-23T12:36:54.073Z,0
2022-12-23T12:37:54.438Z,0.8
2022-12-23T12:38:54.297Z,0.8
2022-12-23T12:39:54.312Z,0.8
2022-12-23T12:40:54.339Z,0.8
2022-12-23T12:41:57.253Z,0.8
2022-12-23T12:42:54.308Z,0
2022-12-23T12:43:54.310Z,0
2022-12-23T12:44:54.383Z,0
2022-12-23T12:45:54.362Z,0
2022-12-23T12:46:54.255Z,0
2022-12-23T12:47:56.957Z,0
2022-12-23T12:48:54.270Z,0
2022-12-23T12:49:54.283Z,0.5
2022-12-23T12:50:54.332Z,0.5
2022-12-23T12:51:54.339Z,0.5
2022-12-23T12:52:54.289Z,0
2022-12-23T12:53:56.224Z,0
2022-12-23T12:54:54.289Z,0
2022-12-23T12:55:54.382Z,0
2022-12-23T12:56:54.311Z,0.5
2022-12-23T12:57:54.358Z,0.5
2022-12-23T12:58:54.266Z,0.5
2022-12-23T12:59:57.429Z,0.9
2022-12-23T13:00:54.335Z,0.9
2022-12-23T13:01:54.396Z,0.9
2022-12-23T13:02:54.441Z,0.9
2022-12-23T13:03:54.326Z,0
2022-12-23T13:04:54.323Z,0
2022-12-23T13:05:54.683Z,0
2022-12-23T13:06:54.322Z,0
2022-12-23T13:07:54.313Z,0
2022-12-23T13:08:54.303Z,0
2022-12-23T13:09:54.512Z,0
2022-12-23T13:10:54.314Z,0.5
2022-12-23T13:11:54.346Z,0.5
2022-12-23T13:12:54.401Z,0.5
2022-12-23T13:13:54.343Z,0
2022-12-23T13:14:54.346Z,0
2022-12-23T13:15:54.288Z,0
2022-12-23T13:16:54.356Z,0
2022-12-23T13:17:56.594Z,0.8
2022-12-23T13:18:54.320Z,0.8
2022-12-23T13:19:54.398Z,0.8
2022-12-23T13:20:54.304Z,0
2022-12-23T13:21:54.378Z,0
2022-12-23T13:22:54.304Z,0
2022-12-23T13:23:57.018Z,1.3
2022-12-23T13:24:54.325Z,1.3
2022-12-23T13:25:54.342Z,1.3
2022-12-23T13:26:54.316Z,1.3
2022-12-23T13:27:54.334Z,0.5
2022-12-23T13:28:54.380Z,0.5
2022-12-23T13:29:57.913Z,0.5
2022-12-23T13:30:54.525Z,0.5
2022-12-23T13:31:54.588Z,0.5
2022-12-23T13:32:54.340Z,0.5
2022-12-23T13:33:54.339Z,0.5
2022-12-23T13:34:54.418Z,0.5
2022-12-23T13:35:56.341Z,0.5
2022-12-23T13:36:54.465Z,0.5
2022-12-23T13:37:54.413Z,0.5
2022-12-23T13:38:54.384Z,0.5
2022-12-23T13:39:54.425Z,0
2022-12-23T13:40:54.394Z,0
2022-12-23T13:41:57.360Z,0
2022-12-23T13:42:54.488Z,0
2022-12-23T13:43:54.429Z,0
2022-12-23T13:44:54.422Z,0
2022-12-23T13:45:54.464Z,0
2022-12-23T13:46:54.372Z,0
2022-12-23T13:47:57.213Z,0
2022-12-23T13:48:54.441Z,0
2022-12-23T13:49:54.436Z,0
2022-12-23T13:50:54.403Z,0
2022-12-23T13:51:54.457Z,0
2022-12-23T13:52:54.400Z,0
2022-12-23T13:53:56.904Z,0
2022-12-23T13:54:54.397Z,0
2022-12-23T13:55:54.430Z,0
2022-12-23T13:56:54.436Z,0
2022-12-23T13:57:54.554Z,0
2022-12-23T13:58:54.383Z,0
2022-12-23T13:59:57.303Z,0
2022-12-23T14:00:54.415Z,0
2022-12-23T14:01:54.420Z,0
2022-12-23T14:02:54.390Z,0
2022-12-23T14:03:54.444Z,0.8
2022-12-23T14:04:54.479Z,0.8
2022-12-23T14:05:54.389Z,0.8
2022-12-23T14:06:54.399Z,0.5
2022-12-23T14:07:54.463Z,0.5
2022-12-23T14:08:54.400Z,0.5
2022-12-23T14:09:54.439Z,0
2022-12-23T14:10:54.418Z,0
2022-12-23T14:11:55.467Z,0
2022-12-23T14:12:54.399Z,0
2022-12-23T14:13:54.392Z,0
2022-12-23T14:14:54.404Z,0
2022-12-23T14:15:54.421Z,0
2022-12-23T14:16:54.435Z,0.5
2022-12-23T14:17:56.296Z,0.5
2022-12-23T14:18:54.388Z,0.5